29分钟前
罗盘
风向 的 风向 150° Brampton-Caledon Airport 15/33
风: 6 千吨, 2 beaufort
0 500 1.500 3.000 5.000 8.000 10.000
SCT 7.500 ft
BKN 10.000 ft
METAR CYYZ 020000Z 15006KT 15SM SCT075 BKN100 04/M02 A2992 RMK AC3AC3 PRESFR SLP141

METAR定义 | 嵌入

24小时趋势

航班类别VFRLIFR
温度5 °C0 °C
风速16 千吨0 千吨
能见度24 公里0 米

更多历史数据

下载我们的安卓应用程序

从你的主屏幕上轻松地访问你的航空天气。
只需一次付费,您就可以获得无广告的体验。

您会帮助我们保持Metar-Taf.com正常运行吗?
您的贡献有助于网站的进一步开发并支付费用。

没有更多广告

您是捐款5美元还是更多?然后,我们将永远不会再向您展示广告,这是我们永恒的感谢!
捐赠前先登录

METAR Brampton-Caledon Airport

该字段位于加拿大中。 机场有{a,plural,=1{一条跑道} other{#跑道}}: 8/26 和 15/33

Brampton-Caledon Airport最近未发布观察结果。相反,我们向您显示22 km的报告多倫多皮爾遜國際機場。 该报告是针对2021年12月1日 19:00, 当地时间进行的。

机场观察

风来自南南东 (150°)方向,速度为6 千吨。

可见度为24 公里。

有疏云,零星散落的云朵在7.500 ft的高度 和 碎云在10.000 ft的高度。 破损或更高的上限为10.000 ft。

温度为4 °C,阵风为-1 °C。 露点为-2 °C,相对湿度为65%。 海平面上的气压为1013 压力 (QNH)。

评论

  • 气压迅速下降 (PRESFR)
  • 海平面压力为1014,1 压力 (SLP141)
  • AC3AC3

白天

今天,太阳从07:34升起,在16:43降落。 这适用于Brampton-Caledon Airport,世界夏令时可能有所不同。 当地时间与世界标准时间之间的时差为-5 小时。 当前,没有夏令时有效。

公司介绍

我们没有关于这个机场的公司信息。

体会

到Vliegles.nl去找飞行课程,跳伞和其他飞行体验。 浏览页面,了解Brampton-Caledon Airport附近所有可用的活动。 你也可以使用搜索功能来寻找你所在地附近的特定飞行课程、跳伞或其他飞行体验。

您是否要在网站上Brampton-Caledon Airport飞行的天气? 阅读更多   自由!